Thisseas — A8YE2 — position and weather

sailwx.info

Track history (hours):
 
Tides and Currents Weather Stations Pressure Air Temp Water Temp Dewpoint Dewpoint Depression Visibility Wind Speed Wind Dir Waves Ship Positions

Thisseas

Last reported at 2018-May-18 16:15 UTC. Time now 2018-Jun-25 02:17 UTC.
Position N 35°58' W 005°36'.
Warning: this ship's position is 37 days out of date.

Length 225 m; draft 7.7 m.

Type: Cargo ship. MMSI: 636015033.

Date/timePositionNaut miles runAvg speedWind from/ knotsBaromVisibWave heightAir tempDewpointWater temp
2018-May-18 16:15N 35°58' W 005°36'311.5
2018-May-18 16:00N 35°59' W 005°32'510.9
2018-May-18 15:30N 36°01' W 005°26'4 7.7
2018-May-18 15:01N 36°04' W 005°24'1 1.6
2018-May-18 14:31N 36°05' W 005°23'2 3.9
2018-May-18 14:01N 36°04' W 005°21'2 4.0
2018-May-18 13:31N 36°03' W 005°19'0 0.3
2018-May-18 13:00N 36°03' W 005°19'1 2.4
2018-May-18 12:31N 36°03' W 005°17'2 4.6
2018-May-18 12:01N 36°02' W 005°15'3 7.0
2018-May-18 11:31N 36°02' W 005°10'  
2018-May-11 03:30N 39°08' E 008°07'8 7.6
2018-May-11 02:29N 39°03' E 008°15'3 6.5
2018-May-11 01:57N 39°05' E 008°19'0 0.2
2018-May-11 01:25N 39°04' E 008°19'0 0.0
2018-May-10 23:37N 39°04' E 008°19'0 0.0
2018-May-10 23:10N 39°04' E 008°19'0 0.0
2018-May-10 22:58N 39°04' E 008°19'0 0.0
2018-May-10 22:01N 39°04' E 008°19'0 0.1
2018-May-10 21:58N 39°04' E 008°19'0 0.1
2018-May-10 21:28N 39°04' E 008°19'0 0.0
2018-May-10 20:37N 39°04' E 008°19'0 0.0
2018-May-10 20:13N 39°04' E 008°19'0 0.0
2018-May-10 19:55N 39°04' E 008°19'0 0.0
2018-May-10 19:22N 39°04' E 008°19'0 0.0
2018-May-10 18:55N 39°04' E 008°19'0 0.0
2018-May-10 10:37N 39°04' E 008°19'0 0.0
2018-May-10 08:13N 39°04' E 008°19'0 0.1
2018-May-10 07:58N 39°04' E 008°19'0 0.0
2018-May-10 06:55N 39°04' E 008°19'0 0.0
2018-May-10 06:25N 39°04' E 008°19'0 0.1
2018-May-10 05:55N 39°04' E 008°19'0 0.0
2018-May-10 04:16N 39°04' E 008°19'0 0.0
2018-May-10 03:58N 39°04' E 008°19'0 0.0
2018-May-10 03:28N 39°04' E 008°19'0 0.0
2018-May-10 02:58N 39°04' E 008°19'0 0.0
2018-May-10 00:49N 39°04' E 008°19'0 0.0
2018-May-10 00:22N 39°04' E 008°19'0 0.0
2018-May-09 23:58N 39°04' E 008°19'0 0.0
2018-May-09 23:25N 39°04' E 008°19'0 0.0
2018-May-09 22:58N 39°04' E 008°19'0 0.0
2018-May-09 22:28N 39°04' E 008°19'0 0.0
2018-May-09 21:19N 39°04' E 008°19'0 0.0
2018-May-09 20:58N 39°04' E 008°19'0 0.0
2018-May-09 20:19N 39°04' E 008°19'0 0.0
2018-May-09 09:28N 39°04' E 008°19'0 0.0
2018-May-09 08:55N 39°04' E 008°19'0 0.0
2018-May-09 08:25N 39°04' E 008°19'0 0.0
2018-May-09 07:46N 39°04' E 008°19'0 0.0
2018-May-09 05:58N 39°04' E 008°19'0 0.0
2018-May-09 04:40N 39°04' E 008°19'0 0.0
2018-May-09 04:16N 39°05' E 008°19'0 0.0
2018-May-09 02:49N 39°04' E 008°19'0 0.0
2018-May-09 00:37N 39°04' E 008°19'0 0.0
2018-May-09 00:25N 39°04' E 008°19'0 0.0
2018-May-08 23:40N 39°04' E 008°19'0 0.1
2018-May-08 23:25N 39°04' E 008°19'0 0.0
2018-May-08 22:52N 39°04' E 008°19'0 0.0
2018-May-08 21:43N 39°04' E 008°19'0 0.0
2018-May-08 21:25N 39°04' E 008°19'0 0.0
2018-May-08 20:52N 39°04' E 008°19'0 0.0
2018-May-08 19:40N 39°04' E 008°19'0 0.0
2018-May-08 16:58N 39°04' E 008°19'  
Track history (hours):
 
Tides and Currents Weather Stations Pressure Air Temp Water Temp Dewpoint Dewpoint Depression Visibility Wind Speed Wind Dir Waves Ship Positions

Thisseas

Last reported at 2018-May-18 16:15 UTC. Time now 2018-Jun-25 02:17 UTC.
Position N 35°58' W 005°36'.
Warning: this ship's position is 37 days out of date.

Length 225 m; draft 7.7 m.

Type: Cargo ship. MMSI: 636015033.

Date/timePositionNaut miles runAvg speedWind from/ knotsBaromVisibWave heightAir tempDewpointWater temp
2018-May-18 16:15N 35°58' W 005°36'311.5
2018-May-18 16:00N 35°59' W 005°32'510.9
2018-May-18 15:30N 36°01' W 005°26'4 7.7
2018-May-18 15:01N 36°04' W 005°24'1 1.6
2018-May-18 14:31N 36°05' W 005°23'2 3.9
2018-May-18 14:01N 36°04' W 005°21'2 4.0
2018-May-18 13:31N 36°03' W 005°19'0 0.3
2018-May-18 13:00N 36°03' W 005°19'1 2.4
2018-May-18 12:31N 36°03' W 005°17'2 4.6
2018-May-18 12:01N 36°02' W 005°15'3 7.0
2018-May-18 11:31N 36°02' W 005°10'  
2018-May-11 03:30N 39°08' E 008°07'8 7.6
2018-May-11 02:29N 39°03' E 008°15'3 6.5
2018-May-11 01:57N 39°05' E 008°19'0 0.2
2018-May-11 01:25N 39°04' E 008°19'0 0.0
2018-May-10 23:37N 39°04' E 008°19'0 0.0
2018-May-10 23:10N 39°04' E 008°19'0 0.0
2018-May-10 22:58N 39°04' E 008°19'0 0.0
2018-May-10 22:01N 39°04' E 008°19'0 0.1
2018-May-10 21:58N 39°04' E 008°19'0 0.1
2018-May-10 21:28N 39°04' E 008°19'0 0.0
2018-May-10 20:37N 39°04' E 008°19'0 0.0
2018-May-10 20:13N 39°04' E 008°19'0 0.0
2018-May-10 19:55N 39°04' E 008°19'0 0.0
2018-May-10 19:22N 39°04' E 008°19'0 0.0
2018-May-10 18:55N 39°04' E 008°19'0 0.0
2018-May-10 10:37N 39°04' E 008°19'0 0.0
2018-May-10 08:13N 39°04' E 008°19'0 0.1
2018-May-10 07:58N 39°04' E 008°19'0 0.0
2018-May-10 06:55N 39°04' E 008°19'0 0.0
2018-May-10 06:25N 39°04' E 008°19'0 0.1
2018-May-10 05:55N 39°04' E 008°19'0 0.0
2018-May-10 04:16N 39°04' E 008°19'0 0.0
2018-May-10 03:58N 39°04' E 008°19'0 0.0
2018-May-10 03:28N 39°04' E 008°19'0 0.0
2018-May-10 02:58N 39°04' E 008°19'0 0.0
2018-May-10 00:49N 39°04' E 008°19'0 0.0
2018-May-10 00:22N 39°04' E 008°19'0 0.0
2018-May-09 23:58N 39°04' E 008°19'0 0.0
2018-May-09 23:25N 39°04' E 008°19'0 0.0
2018-May-09 22:58N 39°04' E 008°19'0 0.0
2018-May-09 22:28N 39°04' E 008°19'0 0.0
2018-May-09 21:19N 39°04' E 008°19'0 0.0
2018-May-09 20:58N 39°04' E 008°19'0 0.0
2018-May-09 20:19N 39°04' E 008°19'0 0.0
2018-May-09 09:28N 39°04' E 008°19'0 0.0
2018-May-09 08:55N 39°04' E 008°19'0 0.0
2018-May-09 08:25N 39°04' E 008°19'0 0.0
2018-May-09 07:46N 39°04' E 008°19'0 0.0
2018-May-09 05:58N 39°04' E 008°19'0 0.0
2018-May-09 04:40N 39°04' E 008°19'0 0.0
2018-May-09 04:16N 39°05' E 008°19'0 0.0
2018-May-09 02:49N 39°04' E 008°19'0 0.0
2018-May-09 00:37N 39°04' E 008°19'0 0.0
2018-May-09 00:25N 39°04' E 008°19'0 0.0
2018-May-08 23:40N 39°04' E 008°19'0 0.1
2018-May-08 23:25N 39°04' E 008°19'0 0.0
2018-May-08 22:52N 39°04' E 008°19'0 0.0
2018-May-08 21:43N 39°04' E 008°19'0 0.0
2018-May-08 21:25N 39°04' E 008°19'0 0.0
2018-May-08 20:52N 39°04' E 008°19'0 0.0
2018-May-08 19:40N 39°04' E 008°19'0 0.0
2018-May-08 16:58N 39°04' E 008°19'  

Dump ship's entire track history